Time;durP1;ratioP1;P1;durP2;ratioP2;P2;SDS_P1;SDS_P2;PMS_P1;PMS_P2;Temp;Humidity;BMP_temperature;BMP_pressure;BME280_temperature;BME280_humidity;BME280_pressure;Samples;Min_cycle;Max_cycle;Signal;HPM_P1;HPM_P2
2023/08/05 00:00:11;;;;;;;8.30;6.60;;;;;;;18.45;90.15;96205.83;108850;1269;25406;-77
2023/08/05 00:03:02;;;;;;;8.50;6.90;;;;;;;18.37;89.93;96210.27;108676;1266;22559;-77
2023/08/05 00:05:34;;;;;;;10.20;6.80;;;;;;;18.25;89.98;96208.98;108688;1272;26448;-76
2023/08/05 00:08:05;;;;;;;8.40;6.60;;;;;;;18.15;90.16;96204.53;108655;1272;22511;-77
2023/08/05 00:10:37;;;;;;;11.70;7.70;;;;;;;18.08;90.56;96199.26;108671;1272;25393;-77
2023/08/05 00:13:08;;;;;;;9.90;7.40;;;;;;;18.03;90.87;96193.23;108892;1271;22509;-76
2023/08/05 00:15:39;;;;;;;9.60;7.00;;;;;;;18.01;91.16;96181.41;108869;1271;22533;-76
2023/08/05 00:18:10;;;;;;;8.80;6.70;;;;;;;18.02;91.43;96179.16;108879;1271;22520;-77
2023/08/05 00:20:41;;;;;;;8.10;6.40;;;;;;;18.08;91.65;96184.80;108886;1271;22550;-76
2023/08/05 00:23:12;;;;;;;8.40;6.50;;;;;;;18.14;91.64;96193.54;108654;1272;22939;-76
2023/08/05 00:25:43;;;;;;;9.10;6.50;;;;;;;18.19;91.73;96190.34;108745;1272;24292;-76
2023/08/05 00:28:14;;;;;;;9.20;6.20;;;;;;;18.22;91.68;96189.21;108749;1272;22537;-76
2023/08/05 00:30:46;;;;;;;10.40;6.90;;;;;;;18.25;91.62;96194.02;108696;1272;22521;-77
2023/08/05 00:33:17;;;;;;;8.80;6.50;;;;;;;18.22;91.56;96191.27;108904;1271;22526;-77
2023/08/05 00:35:48;;;;;;;7.80;6.40;;;;;;;18.16;91.58;96186.41;108926;1271;22524;-77
2023/08/05 00:38:20;;;;;;;9.00;6.50;;;;;;;18.15;91.82;96182.23;108891;1271;22511;-77
2023/08/05 00:40:51;;;;;;;8.30;6.10;;;;;;;18.18;91.93;96172.45;108981;1267;24244;-77
2023/08/05 00:43:22;;;;;;;7.10;6.20;;;;;;;18.20;91.93;96171.59;108904;1271;22511;-77
2023/08/05 00:45:53;;;;;;;7.60;6.30;;;;;;;18.22;91.92;96170.88;108843;1267;22529;-77
2023/08/05 00:48:25;;;;;;;8.40;5.90;;;;;;;18.24;92.03;96157.52;108917;1267;22529;-76
2023/08/05 00:50:59;;;;;;;6.90;5.20;;;;;;;18.25;92.04;96163.37;108783;1271;23028;-76
2023/08/05 00:53:32;;;;;;;8.40;6.30;;;;;;;18.27;92.15;96160.96;108908;1260;22515;-77
2023/08/05 00:56:03;;;;;;;8.10;6.50;;;;;;;18.29;92.20;96146.70;108866;1271;22524;-77
2023/08/05 00:58:34;;;;;;;8.40;6.70;;;;;;;18.29;92.24;96143.02;108901;1269;22620;-77
2023/08/05 01:01:05;;;;;;;8.70;6.30;;;;;;;18.31;92.21;96144.99;108811;1268;25543;-77
2023/08/05 01:03:37;;;;;;;8.20;6.30;;;;;;;18.32;92.26;96149.77;108893;1271;22509;-76
2023/08/05 01:06:12;;;;;;;8.20;6.00;;;;;;;18.34;92.46;96159.13;108884;1267;22535;-76
2023/08/05 01:08:45;;;;;;;7.30;6.20;;;;;;;18.32;92.45;96169.28;108837;1271;22507;-77
2023/08/05 01:11:16;;;;;;;6.90;5.90;;;;;;;18.27;92.46;96178.60;108855;1266;25285;-77
2023/08/05 01:13:47;;;;;;;11.00;6.20;;;;;;;18.19;92.70;96181.44;108680;1272;22521;-77
2023/08/05 01:16:18;;;;;;;9.50;6.30;;;;;;;18.16;93.06;96183.34;108729;1272;22515;-76
2023/08/05 01:18:49;;;;;;;8.10;6.50;;;;;;;18.14;93.14;96179.35;108728;1255;24259;-76
2023/08/05 01:21:38;;;;;;;8.10;6.50;;;;;;;18.12;93.38;96175.02;108712;1272;24242;-76
2023/08/05 01:24:14;;;;;;;9.30;6.80;;;;;;;18.15;93.63;96164.43;108718;1272;22504;-76
2023/08/05 01:26:48;;;;;;;9.10;6.30;;;;;;;18.20;93.86;96133.70;108784;1272;22518;-76
2023/08/05 01:29:19;;;;;;;8.10;6.00;;;;;;;18.20;94.01;96113.94;108722;1272;24265;-76
2023/08/05 01:31:52;;;;;;;9.40;6.10;;;;;;;18.21;94.19;96114.02;108686;1272;23179;-76
2023/08/05 01:34:23;;;;;;;8.70;5.60;;;;;;;18.20;94.16;96130.27;108705;1272;25422;-76
2023/08/05 01:36:55;;;;;;;7.10;6.20;;;;;;;18.18;94.04;96141.69;108719;1272;22534;-76
2023/08/05 01:39:25;;;;;;;7.10;6.40;;;;;;;18.15;94.25;96122.58;108669;1272;22541;-76
2023/08/05 01:41:57;;;;;;;10.00;6.60;;;;;;;18.16;94.59;96109.73;108749;1272;25356;-76
2023/08/05 01:44:28;;;;;;;9.70;6.60;;;;;;;18.18;94.80;96115.94;108704;1266;22514;-76
2023/08/05 01:46:59;;;;;;;7.90;5.90;;;;;;;18.16;94.57;96119.86;108684;1272;22589;-76
2023/08/05 01:49:30;;;;;;;8.60;5.80;;;;;;;18.12;94.44;96121.36;108681;1272;22522;-76
2023/08/05 01:52:01;;;;;;;7.80;6.30;;;;;;;18.09;94.60;96122.26;108741;1272;24318;-76
2023/08/05 01:54:32;;;;;;;9.00;7.20;;;;;;;18.08;94.88;96114.04;108728;1271;22526;-76
2023/08/05 01:57:04;;;;;;;8.20;6.70;;;;;;;18.04;94.95;96110.35;108727;1269;22558;-76
2023/08/05 01:59:35;;;;;;;9.20;7.20;;;;;;;18.03;95.34;96111.13;108692;1271;22589;-76
2023/08/05 02:02:06;;;;;;;10.40;6.70;;;;;;;18.04;95.44;96112.47;108655;1266;27385;-76
2023/08/05 02:04:38;;;;;;;8.70;6.30;;;;;;;18.05;95.51;96116.56;108753;1269;22526;-76
2023/08/05 02:07:09;;;;;;;10.70;6.40;;;;;;;18.05;95.48;96125.30;108697;1266;22533;-76
2023/08/05 02:09:40;;;;;;;8.50;6.40;;;;;;;18.03;95.41;96125.55;108749;1272;22594;-76
2023/08/05 02:12:11;;;;;;;7.50;6.60;;;;;;;18.01;95.45;96126.83;108700;1272;24375;-76
2023/08/05 02:14:45;;;;;;;10.40;7.50;;;;;;;18.00;95.72;96121.68;108713;1272;22538;-76
2023/08/05 02:17:16;;;;;;;10.50;7.10;;;;;;;18.02;95.93;96125.81;108725;1272;23440;-76
2023/08/05 02:19:47;;;;;;;7.80;6.80;;;;;;;18.02;96.11;96128.51;108695;1272;22545;-76
2023/08/05 02:22:18;;;;;;;8.30;6.40;;;;;;;18.02;96.21;96123.60;108666;1270;24439;-76
2023/08/05 02:24:49;;;;;;;8.70;6.50;;;;;;;18.01;96.13;96120.36;108671;1272;24268;-76
2023/08/05 02:27:20;;;;;;;10.80;6.60;;;;;;;18.01;96.20;96107.70;108731;1269;22509;-76
2023/08/05 02:29:51;;;;;;;7.70;5.90;;;;;;;18.03;96.40;96100.41;108692;1270;22533;-76
2023/08/05 02:32:22;;;;;;;9.00;6.40;;;;;;;18.02;96.46;96099.23;108722;1272;22533;-76
2023/08/05 02:34:53;;;;;;;8.60;6.20;;;;;;;18.02;96.56;96104.08;108689;1272;22525;-76
2023/08/05 02:37:24;;;;;;;9.40;5.80;;;;;;;18.01;96.57;96110.16;108657;1272;22603;-76
2023/08/05 02:39:55;;;;;;;9.70;6.50;;;;;;;18.01;96.63;96120.57;108689;1272;22514;-76
2023/08/05 02:42:26;;;;;;;7.50;6.00;;;;;;;18.01;96.61;96118.36;108805;1271;24429;-76
2023/08/05 02:44:57;;;;;;;10.90;6.30;;;;;;;18.01;96.57;96116.45;108919;1266;23265;-76
2023/08/05 02:47:28;;;;;;;8.90;6.50;;;;;;;17.99;96.29;96121.42;108818;1271;22559;-76
2023/08/05 02:49:59;;;;;;;8.30;6.40;;;;;;;17.98;96.48;96130.52;108883;1271;22542;-76
2023/08/05 02:52:30;;;;;;;8.20;6.00;;;;;;;17.96;96.24;96153.97;108759;1272;22542;-76
2023/08/05 02:55:02;;;;;;;9.40;6.50;;;;;;;17.89;96.12;96163.66;108717;1256;22563;-76
2023/08/05 02:57:33;;;;;;;8.80;6.10;;;;;;;17.86;96.49;96124.91;108711;1272;22518;-76
2023/08/05 03:00:04;;;;;;;9.50;6.80;;;;;;;17.84;96.60;96132.30;108722;1272;22946;-76
2023/08/05 03:02:35;;;;;;;9.30;7.00;;;;;;;17.84;96.77;96138.35;108755;1271;25550;-76
2023/08/05 03:05:07;;;;;;;10.00;6.80;;;;;;;17.86;96.79;96135.65;108747;1272;22649;-76
2023/08/05 03:07:38;;;;;;;11.20;7.20;;;;;;;17.89;96.96;96145.71;108805;1272;24242;-76
2023/08/05 03:10:13;;;;;;;8.90;6.20;;;;;;;17.87;96.78;96151.79;108820;1271;24219;-76
2023/08/05 03:12:44;;;;;;;9.70;7.10;;;;;;;17.81;96.71;96145.62;108873;1269;22542;-76
2023/08/05 03:15:16;;;;;;;8.10;6.00;;;;;;;17.76;96.87;96169.55;108891;1271;22508;-76
2023/08/05 03:17:47;;;;;;;10.40;7.60;;;;;;;17.72;97.10;96196.98;108892;1271;22524;-76
2023/08/05 03:20:29;;;;;;;11.50;7.80;;;;;;;17.72;97.37;96207.02;108876;1269;22608;-76
2023/08/05 03:23:00;;;;;;;11.60;7.10;;;;;;;17.72;97.74;96154.92;108645;1272;24213;-77
2023/08/05 03:25:31;;;;;;;11.50;7.10;;;;;;;17.70;97.90;96124.75;108698;1272;22519;-76
2023/08/05 03:28:05;;;;;;;12.10;7.40;;;;;;;17.65;97.83;96185.79;108723;1272;22647;-76
2023/08/05 03:38:42;;;;;;;4.40;3.30;;;;;;;17.26;98.11;96234.76;108626;1272;22523;-77
2023/08/05 03:41:13;;;;;;;4.80;2.90;;;;;;;17.13;98.35;96235.85;108629;1272;22518;-77
2023/08/05 03:43:44;;;;;;;3.30;2.50;;;;;;;17.08;99.00;96225.72;108641;1272;25465;-78
2023/08/05 03:46:15;;;;;;;2.60;2.20;;;;;;;17.12;99.45;96218.27;108736;1266;22641;-77
2023/08/05 03:48:48;;;;;;;2.60;2.30;;;;;;;17.16;99.78;96204.65;108710;1272;25346;-77
2023/08/05 03:51:19;;;;;;;3.60;3.30;;;;;;;17.22;99.97;96189.69;108646;1272;22564;-77
2023/08/05 03:53:50;;;;;;;4.20;3.00;;;;;;;17.28;100.00;96176.79;108635;1265;23196;-77
2023/08/05 03:56:24;;;;;;;4.10;2.90;;;;;;;17.32;100.00;96178.34;108641;1272;23453;-77
2023/08/05 03:58:59;;;;;;;6.00;4.70;;;;;;;17.33;99.97;96183.01;108664;1270;22546;-77
2023/08/05 04:01:32;;;;;;;8.50;6.10;;;;;;;17.27;99.95;96186.10;108816;1269;24221;-77
2023/08/05 04:04:05;;;;;;;9.50;6.60;;;;;;;17.18;100.00;96184.98;108677;1272;22946;-77
2023/08/05 04:06:36;;;;;;;11.00;6.50;;;;;;;17.15;100.00;96189.98;108624;1273;22513;-77
2023/08/05 04:09:07;;;;;;;7.20;5.60;;;;;;;17.15;100.00;96196.71;108609;1273;25021;-77
2023/08/05 04:11:39;;;;;;;8.40;6.10;;;;;;;17.16;100.00;96194.53;108702;1273;23969;-77
2023/08/05 04:14:10;;;;;;;8.30;5.00;;;;;;;17.18;100.00;96196.86;108713;1273;22541;-77
2023/08/05 04:16:42;;;;;;;6.00;4.00;;;;;;;17.19;100.00;96205.61;108662;1272;22531;-77
2023/08/05 04:19:13;;;;;;;7.00;4.40;;;;;;;17.16;100.00;96210.89;108568;1273;24250;-76
2023/08/05 04:21:47;;;;;;;8.40;4.60;;;;;;;17.12;100.00;96211.05;108660;1272;24330;-77
2023/08/05 04:24:24;;;;;;;3.90;3.50;;;;;;;17.14;100.00;96212.20;108640;1273;24239;-77
2023/08/05 04:26:55;;;;;;;4.00;3.50;;;;;;;17.15;100.00;96210.35;108691;1269;22562;-77
2023/08/05 04:29:27;;;;;;;3.30;2.60;;;;;;;17.17;100.00;96188.39;108623;1269;22578;-77
2023/08/05 04:31:58;;;;;;;3.70;2.60;;;;;;;17.15;100.00;96172.52;108616;1269;22525;-77
2023/08/05 04:34:35;;;;;;;3.60;2.90;;;;;;;17.10;100.00;96198.25;108668;1267;22589;-77
2023/08/05 04:37:21;;;;;;;3.80;2.90;;;;;;;17.07;100.00;96209.38;108632;1266;24397;-77
2023/08/05 04:39:53;;;;;;;2.80;2.50;;;;;;;17.00;100.00;96213.69;108696;1273;22515;-77
2023/08/05 04:42:24;;;;;;;3.30;2.50;;;;;;;16.99;100.00;96217.80;108645;1272;23168;-77
2023/08/05 04:44:56;;;;;;;2.60;2.30;;;;;;;17.00;100.00;96221.44;108668;1272;22548;-77
2023/08/05 04:47:28;;;;;;;3.00;2.40;;;;;;;17.00;100.00;96227.32;108623;1273;22753;-77
2023/08/05 04:49:59;;;;;;;2.10;1.70;;;;;;;17.02;100.00;96237.30;108638;1269;23254;-77
2023/08/05 04:52:30;;;;;;;2.10;1.80;;;;;;;17.05;100.00;96247.12;108605;1272;22526;-77
2023/08/05 04:55:14;;;;;;;2.80;2.10;;;;;;;17.07;100.00;96251.16;108662;1272;25288;-77
2023/08/05 04:57:46;;;;;;;3.10;1.70;;;;;;;17.09;100.00;96249.79;108646;1273;22554;-76
2023/08/05 05:00:17;;;;;;;4.10;2.60;;;;;;;17.04;100.00;96221.50;108627;1272;23838;-77
2023/08/05 05:02:50;;;;;;;3.60;2.50;;;;;;;17.00;100.00;96201.55;108660;1272;22608;-77
2023/08/05 05:05:21;;;;;;;5.40;3.30;;;;;;;16.93;100.00;96187.32;108662;1272;23566;-77
2023/08/05 05:07:54;;;;;;;4.30;3.40;;;;;;;16.87;100.00;96161.00;108662;1272;22594;-76
2023/08/05 05:10:26;;;;;;;6.30;4.10;;;;;;;16.88;100.00;96154.73;108660;1266;24922;-76
2023/08/05 05:12:58;;;;;;;4.30;3.90;;;;;;;16.89;100.00;96164.61;108671;1272;22557;-77
2023/08/05 05:15:29;;;;;;;5.00;3.50;;;;;;;16.89;100.00;96164.66;108645;1273;22522;-77
2023/08/05 05:18:02;;;;;;;4.00;3.00;;;;;;;16.87;100.00;96174.54;108638;1273;22527;-76
2023/08/05 05:20:35;;;;;;;17.90;4.00;;;;;;;16.81;100.00;96158.89;108723;1273;25389;-76
2023/08/05 05:23:06;;;;;;;21.80;4.60;;;;;;;16.75;100.00;96135.67;108650;1272;22563;-77
2023/08/05 05:25:38;;;;;;;63.30;6.20;;;;;;;16.76;100.00;96127.27;108612;1273;22526;-76
2023/08/05 05:28:09;;;;;;;101.40;7.20;;;;;;;16.73;100.00;96115.15;108644;1267;22530;-76
2023/08/05 05:30:41;;;;;;;14.40;4.20;;;;;;;16.71;100.00;96107.11;108633;1267;24212;-77
2023/08/05 05:33:13;;;;;;;5.20;4.50;;;;;;;16.68;100.00;96105.65;108683;1272;22527;-76
2023/08/05 05:35:44;;;;;;;6.60;4.50;;;;;;;16.63;100.00;96095.45;108694;1269;22638;-77
2023/08/05 05:38:15;;;;;;;5.40;4.80;;;;;;;16.65;100.00;96092.38;108590;1272;253832;-77
2023/08/05 05:40:48;;;;;;;6.60;4.70;;;;;;;16.69;100.00;96089.17;108713;1272;22545;-77
2023/08/05 05:43:20;;;;;;;6.20;5.10;;;;;;;16.73;100.00;96080.58;108679;1273;25338;-77
2023/08/05 05:45:54;;;;;;;5.00;4.20;;;;;;;16.76;100.00;96068.14;108741;1272;23068;-77
2023/08/05 05:48:25;;;;;;;5.00;4.30;;;;;;;16.74;100.00;96070.50;108666;1273;22525;-77
2023/08/05 05:50:57;;;;;;;4.80;4.00;;;;;;;16.71;100.00;96067.65;108651;1273;22566;-77
2023/08/05 05:53:28;;;;;;;5.60;4.40;;;;;;;16.68;100.00;96059.15;108647;1272;22524;-77
2023/08/05 05:56:00;;;;;;;5.90;4.40;;;;;;;16.67;100.00;96035.30;108711;1272;22518;-77
2023/08/05 05:58:34;;;;;;;5.60;4.90;;;;;;;16.65;100.00;96019.58;108660;1270;22525;-77
2023/08/05 06:01:06;;;;;;;5.90;4.80;;;;;;;16.64;100.00;96019.93;108640;1273;22511;-77
2023/08/05 06:03:38;;;;;;;7.30;4.60;;;;;;;16.62;100.00;96012.27;108731;1267;24568;-77
2023/08/05 06:06:10;;;;;;;4.00;3.50;;;;;;;16.56;100.00;96068.64;108687;1273;25403;-76
2023/08/05 06:08:42;;;;;;;4.90;4.20;;;;;;;16.47;100.00;96146.63;108642;1273;25367;-76
2023/08/05 06:11:14;;;;;;;5.20;4.60;;;;;;;16.45;100.00;96135.60;108644;1273;23236;-77
2023/08/05 06:13:47;;;;;;;5.40;4.90;;;;;;;16.49;100.00;96129.20;108703;1273;22526;-76
2023/08/05 06:16:26;;;;;;;6.70;4.90;;;;;;;16.57;100.00;96149.58;108698;1273;22515;-77
2023/08/05 06:18:58;;;;;;;4.70;3.70;;;;;;;16.62;100.00;96144.89;108644;1273;22552;-77
2023/08/05 06:21:30;;;;;;;4.40;4.00;;;;;;;16.67;100.00;96143.60;108654;1272;24126;-77
2023/08/05 06:24:01;;;;;;;5.40;3.80;;;;;;;16.66;100.00;96158.09;108662;1273;24240;-77
2023/08/05 06:26:33;;;;;;;4.10;3.20;;;;;;;16.66;100.00;96158.46;108723;1270;22527;-77
2023/08/05 06:29:05;;;;;;;3.10;2.80;;;;;;;16.65;100.00;96151.00;108674;1267;22540;-77
2023/08/05 06:31:37;;;;;;;3.30;2.90;;;;;;;16.62;100.00;96132.05;108665;1273;23848;-77
2023/08/05 06:34:09;;;;;;;4.50;3.00;;;;;;;16.63;100.00;96115.48;108654;1273;24215;-77
2023/08/05 06:36:41;;;;;;;3.40;2.80;;;;;;;16.67;100.00;96136.33;108670;1273;22542;-77
2023/08/05 06:39:19;;;;;;;3.30;2.80;;;;;;;16.69;100.00;96148.35;108686;1273;25335;-77
2023/08/05 06:41:52;;;;;;;2.80;2.50;;;;;;;16.70;100.00;96134.92;108751;1266;22518;-78
2023/08/05 06:44:24;;;;;;;2.90;2.70;;;;;;;16.72;100.00;96109.67;108666;1270;24201;-78
2023/08/05 06:46:58;;;;;;;3.60;2.70;;;;;;;16.74;100.00;96092.17;108693;1267;25423;-78
2023/08/05 06:49:31;;;;;;;3.30;2.30;;;;;;;16.79;100.00;96086.22;108702;1272;24235;-78
2023/08/05 06:52:06;;;;;;;3.20;1.60;;;;;;;16.78;100.00;96058.90;108777;1272;22526;-77
2023/08/05 06:54:38;;;;;;;2.40;2.20;;;;;;;16.78;100.00;95989.30;108638;1270;22574;-77
2023/08/05 06:57:11;;;;;;;6.70;3.10;;;;;;;16.81;100.00;95963.46;108639;1273;25291;-77
2023/08/05 06:59:43;;;;;;;3.60;2.30;;;;;;;16.78;100.00;95976.58;108659;1273;22527;-77
2023/08/05 07:02:15;;;;;;;3.30;2.80;;;;;;;16.67;100.00;95944.94;108618;1273;22568;-77
2023/08/05 07:04:49;;;;;;;4.40;3.00;;;;;;;16.58;100.00;95893.39;108678;1273;22621;-77
2023/08/05 07:07:21;;;;;;;2.90;1.80;;;;;;;16.58;100.00;95906.93;108766;1266;22518;-77
2023/08/05 07:10:01;;;;;;;2.30;2.10;;;;;;;16.65;100.00;95932.84;108668;1272;22532;-76
2023/08/05 07:12:33;;;;;;;3.50;2.70;;;;;;;16.65;100.00;95963.98;108736;1271;22529;-76
2023/08/05 07:15:06;;;;;;;4.20;3.30;;;;;;;16.62;100.00;95988.74;108788;1272;22572;-74
2023/08/05 07:17:38;;;;;;;5.20;4.50;;;;;;;16.55;100.00;95998.42;108826;1273;22517;-74
2023/08/05 07:20:13;;;;;;;4.50;4.10;;;;;;;16.47;100.00;95991.58;108834;1263;22550;-74
2023/08/05 07:22:50;;;;;;;4.70;4.00;;;;;;;16.43;100.00;95992.97;108745;1273;23759;-74
2023/08/05 07:25:22;;;;;;;4.10;3.60;;;;;;;16.38;100.00;95990.66;108803;1273;22514;-75
2023/08/05 07:27:54;;;;;;;3.90;3.20;;;;;;;16.33;100.00;95993.48;108789;1267;24177;-74
2023/08/05 07:30:25;;;;;;;5.30;3.60;;;;;;;16.31;100.00;95983.84;108717;1266;23804;-76
2023/08/05 07:32:56;;;;;;;4.10;3.50;;;;;;;16.32;100.00;95985.33;108691;1266;22514;-75
2023/08/05 07:35:33;;;;;;;4.60;3.90;;;;;;;16.31;100.00;95990.56;108667;1273;22514;-73
2023/08/05 07:38:09;;;;;;;5.50;4.50;;;;;;;16.27;100.00;95987.15;108733;1272;22945;-75
2023/08/05 07:40:41;;;;;;;4.50;4.10;;;;;;;16.28;100.00;95987.71;108711;1273;22607;-74
2023/08/05 07:43:15;;;;;;;5.40;4.90;;;;;;;16.32;100.00;95986.48;108726;1273;22508;-75
2023/08/05 07:45:47;;;;;;;6.30;4.30;;;;;;;16.38;100.00;95999.61;108737;1269;22993;-75
2023/08/05 07:48:18;;;;;;;4.30;3.80;;;;;;;16.42;100.00;96021.91;108687;1267;22526;-74
2023/08/05 07:50:49;;;;;;;8.30;4.90;;;;;;;16.46;100.00;96020.51;108735;1272;22563;-74
2023/08/05 07:53:23;;;;;;;5.10;4.60;;;;;;;16.53;100.00;95998.77;108682;1272;22528;-74
2023/08/05 07:55:55;;;;;;;6.50;4.70;;;;;;;16.64;100.00;95993.02;108668;1272;22505;-74
2023/08/05 07:58:26;;;;;;;5.50;5.00;;;;;;;16.74;100.00;95993.87;108633;1273;22511;-74
2023/08/05 08:00:59;;;;;;;5.30;4.60;;;;;;;16.80;100.00;96002.13;108699;1267;22538;-74
2023/08/05 08:03:30;;;;;;;5.20;4.40;;;;;;;16.87;100.00;96012.44;108707;1267;22542;-75
2023/08/05 08:06:01;;;;;;;5.30;4.40;;;;;;;16.95;100.00;96007.34;108684;1272;22515;-74
2023/08/05 08:08:33;;;;;;;5.80;4.20;;;;;;;17.02;100.00;95997.79;108715;1267;22544;-74
2023/08/05 08:11:05;;;;;;;4.90;4.20;;;;;;;17.09;100.00;96010.11;108710;1271;22526;-74
2023/08/05 08:13:36;;;;;;;4.10;3.70;;;;;;;17.14;100.00;96014.99;108698;1272;22530;-74
2023/08/05 08:16:08;;;;;;;6.10;4.10;;;;;;;17.17;100.00;95996.66;108713;1273;22510;-74
2023/08/05 08:18:39;;;;;;;4.60;4.00;;;;;;;17.21;100.00;95981.73;108704;1273;22516;-74
2023/08/05 08:21:10;;;;;;;4.30;3.90;;;;;;;17.25;100.00;95987.73;108688;1267;22926;-74
2023/08/05 08:23:43;;;;;;;5.20;4.20;;;;;;;17.32;100.00;95991.61;108718;1273;22521;-74
2023/08/05 08:26:15;;;;;;;5.00;4.30;;;;;;;17.39;100.00;95979.41;108640;1273;22511;-74
2023/08/05 08:28:46;;;;;;;3.70;3.40;;;;;;;17.47;100.00;95968.19;108682;1272;22519;-75
2023/08/05 08:31:17;;;;;;;4.40;3.80;;;;;;;17.55;100.00;95965.65;108709;1273;22618;-75
2023/08/05 08:33:49;;;;;;;3.50;2.70;;;;;;;17.59;100.00;95964.10;108655;1273;22519;-75
2023/08/05 08:36:22;;;;;;;3.30;3.00;;;;;;;17.62;100.00;95960.81;108731;1273;22554;-74
2023/08/05 08:38:53;;;;;;;2.90;2.60;;;;;;;17.65;100.00;95956.38;108732;1273;22538;-75
2023/08/05 08:41:26;;;;;;;2.40;2.20;;;;;;;17.69;100.00;95956.52;108722;1273;22518;-75
2023/08/05 08:44:02;;;;;;;3.30;2.10;;;;;;;17.71;100.00;95965.68;108657;1273;22946;-75
2023/08/05 08:46:34;;;;;;;3.30;2.10;;;;;;;17.69;100.00;95967.32;108684;1267;23184;-74
2023/08/05 08:49:05;;;;;;;2.40;2.20;;;;;;;17.69;100.00;95954.23;108663;1266;23222;-75
2023/08/05 08:51:38;;;;;;;2.30;2.10;;;;;;;17.69;100.00;95944.95;108663;1271;24251;-75
2023/08/05 08:54:10;;;;;;;2.40;2.20;;;;;;;17.68;100.00;95943.77;108820;1264;22526;-76
2023/08/05 08:56:42;;;;;;;2.60;2.40;;;;;;;17.65;100.00;95985.11;108818;1271;22518;-74
2023/08/05 08:59:15;;;;;;;2.60;2.20;;;;;;;17.61;100.00;95979.02;108791;1264;22558;-74
2023/08/05 09:01:49;;;;;;;2.20;2.00;;;;;;;17.63;100.00;95968.41;108775;1272;24209;-74
2023/08/05 09:04:24;;;;;;;2.90;2.60;;;;;;;17.68;100.00;95942.09;108730;1273;22620;-74
2023/08/05 09:06:57;;;;;;;2.50;2.30;;;;;;;17.77;100.00;95941.74;108674;1267;22507;-74
2023/08/05 09:09:30;;;;;;;2.70;2.50;;;;;;;18.05;100.00;95941.73;108631;1272;24375;-74
2023/08/05 09:12:03;;;;;;;3.50;3.20;;;;;;;18.89;100.00;95927.92;108786;1272;22564;-74
2023/08/05 09:14:34;;;;;;;2.70;2.50;;;;;;;19.62;100.00;95933.42;108805;1271;22528;-76
2023/08/05 09:17:06;;;;;;;3.70;2.30;;;;;;;19.78;100.00;95921.62;108812;1272;22520;-74
2023/08/05 09:19:41;;;;;;;1.60;1.50;;;;;;;19.78;100.00;95914.48;108770;1271;22516;-74
2023/08/05 09:22:12;;;;;;;1.70;1.60;;;;;;;19.65;100.00;95902.29;108765;1272;23208;-74
2023/08/05 09:24:44;;;;;;;2.10;1.30;;;;;;;19.53;100.00;95882.05;108637;1273;25353;-74
2023/08/05 09:27:15;;;;;;;1.70;1.40;;;;;;;19.43;100.00;95873.48;108693;1273;23812;-74
2023/08/05 09:29:47;;;;;;;2.00;1.80;;;;;;;19.42;100.00;95877.67;108628;1273;22514;-73
2023/08/05 09:32:20;;;;;;;2.60;1.70;;;;;;;19.51;100.00;95891.86;108702;1266;25385;-74
2023/08/05 09:34:54;;;;;;;2.20;1.70;;;;;;;19.77;100.00;95901.86;108680;1266;25240;-74
2023/08/05 09:37:26;;;;;;;2.50;1.70;;;;;;;20.00;100.00;95905.45;108672;1266;23078;-74
2023/08/05 09:39:58;;;;;;;2.70;1.50;;;;;;;20.07;100.00;95902.35;108620;1272;24369;-74
2023/08/05 09:42:30;;;;;;;1.60;1.50;;;;;;;20.11;100.00;95901.19;108659;1273;22515;-74
2023/08/05 09:45:08;;;;;;;1.30;1.00;;;;;;;20.07;100.00;95899.28;108738;1273;22529;-74
2023/08/05 09:47:42;;;;;;;1.20;1.10;;;;;;;20.17;100.00;95895.31;108687;1270;24387;-75
2023/08/05 09:50:18;;;;;;;1.40;1.30;;;;;;;20.33;100.00;95893.05;108647;1267;22552;-74
2023/08/05 09:52:56;;;;;;;1.50;1.40;;;;;;;20.54;100.00;95898.68;108753;1271;22504;-75
2023/08/05 09:55:28;;;;;;;2.80;1.20;;;;;;;20.74;100.00;95902.84;108928;1269;22512;-75
2023/08/05 09:58:00;;;;;;;2.60;1.20;;;;;;;20.78;100.00;95910.84;108880;1271;22601;-76
2023/08/05 10:00:33;;;;;;;1.30;1.20;;;;;;;20.68;100.00;95913.77;108893;1271;24775;-75
2023/08/05 10:03:07;;;;;;;1.30;1.10;;;;;;;20.65;100.00;95909.48;108874;1266;22574;-75
2023/08/05 10:05:41;;;;;;;1.40;1.20;;;;;;;20.79;100.00;95907.16;108917;1264;22628;-74
2023/08/05 10:08:13;;;;;;;1.20;1.10;;;;;;;21.08;100.00;95901.29;108890;1271;22511;-75
2023/08/05 10:10:45;;;;;;;3.50;1.60;;;;;;;21.35;100.00;95897.77;108941;1269;22562;-75
2023/08/05 10:13:20;;;;;;;2.40;1.40;;;;;;;21.58;100.00;95889.91;108946;1266;22572;-75
2023/08/05 10:15:55;;;;;;;1.60;1.30;;;;;;;21.91;100.00;95885.52;108927;1264;22637;-75
2023/08/05 10:18:27;;;;;;;1.40;1.30;;;;;;;22.20;100.00;95881.30;108931;1271;25291;-75
2023/08/05 10:21:03;;;;;;;1.70;1.20;;;;;;;22.39;100.00;95882.18;108841;1271;22514;-75
2023/08/05 10:23:39;;;;;;;1.20;1.10;;;;;;;22.43;100.00;95889.23;108844;1270;25301;-75
2023/08/05 10:26:11;;;;;;;1.40;1.30;;;;;;;22.31;100.00;95900.23;108622;1269;25223;-75
2023/08/05 10:28:43;;;;;;;1.60;1.40;;;;;;;22.32;100.00;95901.09;108804;1266;23092;-75
2023/08/05 10:31:37;;;;;;;2.80;1.30;;;;;;;22.31;100.00;95894.45;108757;1269;22537;-75
2023/08/05 10:34:18;;;;;;;1.40;1.30;;;;;;;22.41;100.00;95884.98;108813;1272;22646;-75
2023/08/05 10:36:50;;;;;;;1.50;1.40;;;;;;;22.51;100.00;95879.42;108804;1272;23123;-75
2023/08/05 10:39:45;;;;;;;1.50;1.40;;;;;;;22.59;100.00;95882.81;108812;1263;22563;-75
2023/08/05 10:42:34;;;;;;;3.00;1.60;;;;;;;22.70;100.00;95873.57;108788;1272;22516;-75
2023/08/05 10:45:11;;;;;;;3.00;1.60;;;;;;;22.75;100.00;95869.66;108832;1267;22524;-75
2023/08/05 10:47:50;;;;;;;3.70;1.70;;;;;;;22.75;100.00;95858.63;108870;1273;22511;-75
2023/08/05 10:50:22;;;;;;;3.30;1.80;;;;;;;22.83;99.93;95846.66;108810;1272;25318;-75
2023/08/05 10:52:54;;;;;;;1.40;1.30;;;;;;;22.81;99.72;95861.32;108772;1271;49420;-75
2023/08/05 10:55:28;;;;;;;1.50;1.40;;;;;;;22.88;100.00;95864.62;108814;1272;22519;-75
2023/08/05 10:58:01;;;;;;;2.00;1.80;;;;;;;22.92;98.76;95847.81;108744;1271;22532;-75
2023/08/05 11:00:41;;;;;;;2.70;2.10;;;;;;;22.77;98.29;95840.56;108747;1271;22615;-75
2023/08/05 11:03:30;;;;;;;2.70;1.80;;;;;;;22.71;98.31;95833.52;108665;1269;24454;-76
2023/08/05 11:06:05;;;;;;;2.90;2.00;;;;;;;22.57;97.95;95839.65;108729;1266;22516;-75
2023/08/05 11:08:40;;;;;;;1.70;1.60;;;;;;;22.43;97.99;95857.21;108783;1272;22604;-75
2023/08/05 11:11:13;;;;;;;2.30;2.00;;;;;;;22.41;98.65;95873.80;108706;1273;25449;-75
2023/08/05 11:13:49;;;;;;;2.40;1.90;;;;;;;22.44;99.10;95861.86;108790;1268;22521;-75
2023/08/05 11:16:20;;;;;;;2.90;2.00;;;;;;;22.43;98.82;95846.18;108757;1272;22580;-75
2023/08/05 11:19:00;;;;;;;4.40;1.60;;;;;;;22.44;99.59;95847.35;108724;1267;22517;-76
2023/08/05 11:21:29;;;;;;;;;;;;;;;22.48;99.76;95849.45;108689;1266;22502;-75
2023/08/05 11:24:01;;;;;;;4.30;2.40;;;;;;;22.44;98.98;95850.27;108685;1272;22565;-75
2023/08/05 11:26:35;;;;;;;2.50;2.10;;;;;;;22.41;99.07;95852.19;108690;1273;22511;-75
2023/08/05 11:29:07;;;;;;;2.80;2.50;;;;;;;22.37;98.79;95845.27;108682;1272;22511;-75
2023/08/05 11:31:39;;;;;;;2.30;2.10;;;;;;;22.28;98.76;95848.82;108609;1273;58541;-75
2023/08/05 11:34:10;;;;;;;2.10;2.00;;;;;;;22.20;98.33;95850.14;108705;1273;22515;-74
2023/08/05 11:36:41;;;;;;;2.50;2.30;;;;;;;21.93;97.45;95851.08;108754;1271;22624;-75
2023/08/05 11:39:12;;;;;;;2.70;2.30;;;;;;;21.73;97.92;95847.15;108696;1272;22531;-75
2023/08/05 11:41:43;;;;;;;3.40;2.60;;;;;;;21.49;97.79;95827.53;108724;1269;22529;-74
2023/08/05 11:44:17;;;;;;;3.80;2.50;;;;;;;21.35;98.54;95815.56;108756;1272;22520;-74
2023/08/05 11:46:48;;;;;;;2.60;2.40;;;;;;;21.31;99.20;95826.02;108792;1268;24282;-75
2023/08/05 11:49:19;;;;;;;3.00;2.80;;;;;;;21.30;99.59;95832.23;108671;1272;25335;-75
2023/08/05 11:51:52;;;;;;;2.80;2.60;;;;;;;21.31;100.00;95835.09;108783;1271;23289;-74